Time;durP1;ratioP1;P1;durP2;ratioP2;P2;SDS_P1;SDS_P2;PMS_P1;PMS_P2;Temp;Humidity;BMP_temperature;BMP_pressure;BME280_temperature;BME280_humidity;BME280_pressure;Samples;Min_cycle;Max_cycle;Signal;HPM_P1;HPM_P2
2022/11/17 00:00:25;;;;;;;5.82;2.67;;;;;;;8.37;50.65;100090.75;7390619;19;20088;-59
2022/11/17 00:02:51;;;;;;;6.07;3.00;;;;;;;8.52;50.22;100096.25;7389634;19;20009;-59
2022/11/17 00:05:17;;;;;;;6.43;3.17;;;;;;;8.44;50.29;100086.31;7390611;19;20062;-59
2022/11/17 00:07:44;;;;;;;5.50;2.90;;;;;;;8.30;50.71;100080.44;7390096;19;20030;-60
2022/11/17 00:10:12;;;;;;;6.20;3.17;;;;;;;8.35;50.64;100080.22;7390657;19;20010;-59
2022/11/17 00:15:22;;;;;;;7.88;3.20;;;;;;;8.51;50.25;100064.78;7391096;19;20017;-60
2022/11/17 00:21:17;;;;;;;6.53;3.25;;;;;;;8.44;50.32;100067.28;7389992;19;20007;-60
2022/11/17 00:23:21;;;;;;;6.03;3.35;;;;;;;8.37;50.41;100047.25;7390629;19;19999;-59
2022/11/17 00:25:47;;;;;;;7.10;3.78;;;;;;;8.44;50.28;100050.97;7391282;19;20013;-59
2022/11/17 00:28:12;;;;;;;7.00;3.50;;;;;;;8.65;49.89;100055.44;7388264;19;20461;-59
2022/11/17 00:36:06;;;;;;;7.50;3.53;;;;;;;8.46;50.11;100007.88;7389693;19;20006;-59
2022/11/17 00:38:32;;;;;;;6.35;3.05;;;;;;;8.55;49.72;100018.63;7387439;19;20009;-59
2022/11/17 00:40:58;;;;;;;6.88;3.10;;;;;;;8.47;49.99;100014.13;7387468;19;19995;-60
2022/11/17 00:43:23;;;;;;;5.25;3.00;;;;;;;8.31;50.34;100022.19;7388990;19;19998;-58
2022/11/17 00:45:49;;;;;;;5.85;3.13;;;;;;;8.42;50.05;100014.38;7390087;19;19999;-58
2022/11/17 00:48:15;;;;;;;7.82;3.22;;;;;;;8.27;50.34;99997.63;7388032;19;20003;-60
2022/11/17 00:50:41;;;;;;;5.13;3.00;;;;;;;8.45;50.08;99997.38;7387399;19;20006;-59
2022/11/17 00:53:07;;;;;;;5.53;3.10;;;;;;;8.14;50.38;99999.56;7388244;19;20336;-59
2022/11/17 00:55:32;;;;;;;6.95;3.38;;;;;;;8.30;50.21;99996.16;7389891;19;20331;-60
2022/11/17 00:57:58;;;;;;;5.90;3.17;;;;;;;8.30;50.28;99985.28;7387924;19;20455;-59
2022/11/17 01:00:24;;;;;;;5.50;3.00;;;;;;;8.09;50.51;99997.09;7387317;19;20329;-59
2022/11/17 01:02:50;;;;;;;5.68;2.92;;;;;;;8.16;50.54;100001.94;7389816;19;20466;-60
2022/11/17 01:05:16;;;;;;;5.88;3.05;;;;;;;8.09;50.43;99994.38;7390137;19;20002;-59
2022/11/17 01:07:41;;;;;;;5.80;2.83;;;;;;;8.24;50.24;99992.09;7388816;19;20026;-59
2022/11/17 01:10:07;;;;;;;4.97;2.85;;;;;;;8.36;49.87;99983.91;7389853;19;19998;-59
2022/11/17 01:12:33;;;;;;;6.80;2.78;;;;;;;8.45;49.68;99968.25;7388059;19;19995;-59
2022/11/17 01:14:59;;;;;;;6.05;2.80;;;;;;;8.10;50.21;99960.66;7394073;19;20022;-59
2022/11/17 01:17:24;;;;;;;5.40;2.65;;;;;;;8.14;50.03;99955.31;7394751;19;19994;-60
2022/11/17 01:19:50;;;;;;;6.65;2.65;;;;;;;8.18;49.77;99944.53;7396309;19;19998;-59
2022/11/17 01:22:16;;;;;;;7.03;2.45;;;;;;;8.09;49.99;99937.31;7394205;19;20062;-59
2022/11/17 01:24:42;;;;;;;5.70;2.50;;;;;;;8.08;50.14;99929.50;7396661;19;20002;-59
2022/11/17 01:27:08;;;;;;;5.20;2.30;;;;;;;8.09;49.60;99921.00;7395404;19;20490;-59
2022/11/17 01:29:34;;;;;;;4.72;2.30;;;;;;;8.10;49.64;99911.72;7394867;19;20008;-59
2022/11/17 01:31:59;;;;;;;3.70;2.00;;;;;;;8.09;49.68;99907.41;7394171;19;20479;-59
2022/11/17 01:34:25;;;;;;;4.03;1.98;;;;;;;8.13;49.42;99902.88;7396432;19;19995;-59
2022/11/17 01:39:35;;;;;;;6.03;2.22;;;;;;;7.81;49.99;99898.47;7396273;19;20007;-59
2022/11/17 01:42:11;;;;;;;3.90;1.60;;;;;;;7.85;49.85;99910.22;7393273;19;20033;-59
2022/11/17 01:44:40;;;;;;;3.22;1.80;;;;;;;7.75;50.15;99898.69;7395824;19;20003;-59
2022/11/17 01:47:44;;;;;;;6.45;2.13;;;;;;;7.83;49.54;99898.91;7394710;19;20002;-59
2022/11/17 01:50:36;;;;;;;2.42;1.50;;;;;;;8.00;49.18;99895.91;7395334;19;20354;-58
2022/11/17 01:53:10;;;;;;;2.38;1.40;;;;;;;7.98;49.50;99903.63;7395603;19;20013;-59
2022/11/17 01:55:58;;;;;;;3.90;1.40;;;;;;;8.19;48.79;99880.88;7395215;19;20002;-57
2022/11/17 01:58:32;;;;;;;2.55;1.40;;;;;;;8.24;48.81;99883.34;7393179;19;20122;-59
2022/11/17 02:00:58;;;;;;;;;;;;;;;8.09;48.88;99888.38;7394579;19;20006;-59
2022/11/17 02:03:25;;;;;;;3.40;1.70;;;;;;;8.24;48.77;99878.69;7393508;19;19946;-59
2022/11/17 02:06:02;;;;;;;3.17;1.60;;;;;;;8.12;48.85;99871.38;7394764;19;20035;-59
2022/11/17 02:08:31;;;;;;;3.20;1.95;;;;;;;8.05;48.96;99863.03;7395329;19;20022;-59
2022/11/17 02:11:03;;;;;;;4.15;1.75;;;;;;;8.09;49.16;99868.56;7393790;19;20466;-60
2022/11/17 02:13:29;;;;;;;3.95;1.80;;;;;;;8.31;48.54;99864.50;7393285;19;19999;-60
2022/11/17 02:15:54;;;;;;;5.95;1.95;;;;;;;8.18;48.80;99852.91;7395567;19;20001;-61
2022/11/17 02:18:20;;;;;;;5.25;2.08;;;;;;;8.00;49.57;99868.72;7392487;19;20013;-59
2022/11/17 02:21:18;;;;;;;4.70;1.92;;;;;;;8.09;49.27;99874.78;7394048;19;20011;-58
2022/11/17 02:23:59;;;;;;;3.30;1.95;;;;;;;8.06;49.40;99869.25;7393957;19;20467;-59
2022/11/17 02:26:47;;;;;;;4.53;2.05;;;;;;;7.98;49.21;99869.06;7392104;19;20079;-58
2022/11/17 02:29:45;;;;;;;3.42;1.90;;;;;;;8.26;48.88;99859.31;7394231;19;20014;-59
2022/11/17 02:32:29;;;;;;;3.78;2.05;;;;;;;8.27;48.84;99858.19;7392510;19;20007;-59
2022/11/17 02:35:11;;;;;;;3.53;1.90;;;;;;;8.14;48.95;99852.78;7392646;19;20013;-59
2022/11/17 02:37:36;;;;;;;6.10;2.17;;;;;;;7.81;49.71;99833.25;7392978;19;20007;-60
2022/11/17 02:40:19;;;;;;;3.92;2.28;;;;;;;7.90;49.49;99825.75;7394745;19;20470;-59
2022/11/17 02:45:56;;;;;;;4.05;2.00;;;;;;;7.85;49.38;99840.38;7393845;19;20010;-59
2022/11/17 02:48:33;;;;;;;3.75;2.15;;;;;;;8.06;48.98;99829.28;7393075;19;19995;-59
2022/11/17 02:51:01;;;;;;;5.57;2.30;;;;;;;7.98;49.26;99822.09;7391882;19;20025;-59
2022/11/17 02:53:28;;;;;;;4.95;2.42;;;;;;;7.92;49.50;99813.38;7393673;19;20058;-59
2022/11/17 02:55:58;;;;;;;4.53;2.33;;;;;;;7.89;49.35;99808.66;7394047;19;19998;-60
2022/11/17 02:58:24;;;;;;;4.13;2.30;;;;;;;8.07;48.92;99795.53;7390129;19;20070;-59
2022/11/17 03:00:59;;;;;;;4.53;2.25;;;;;;;8.06;49.13;99790.44;7391124;19;19998;-59
2022/11/17 03:03:37;;;;;;;6.43;2.90;;;;;;;7.86;49.30;99786.81;7392913;19;20021;-59
2022/11/17 03:06:11;;;;;;;6.15;2.78;;;;;;;7.96;49.09;99781.69;7393765;19;20329;-60
2022/11/17 03:09:12;;;;;;;4.43;2.25;;;;;;;8.03;49.03;99785.72;7392403;19;20338;-59
2022/11/17 03:12:15;;;;;;;5.70;2.95;;;;;;;7.87;49.23;99770.16;7391599;19;20065;-60
2022/11/17 03:14:49;;;;;;;5.93;2.50;;;;;;;7.97;49.25;99777.03;7390861;19;20006;-60
2022/11/17 03:17:22;;;;;;;4.68;2.65;;;;;;;7.89;49.41;99777.97;7391725;19;20002;-59
2022/11/17 03:20:07;;;;;;;6.05;2.97;;;;;;;7.97;49.28;99771.59;7390916;19;19998;-58
2022/11/17 03:22:42;;;;;;;5.47;3.13;;;;;;;8.00;49.33;99760.03;7392119;19;20459;-59
2022/11/17 03:25:13;;;;;;;8.00;3.65;;;;;;;7.55;50.30;99772.81;7392812;19;19994;-58
2022/11/17 03:27:49;;;;;;;6.32;3.20;;;;;;;7.76;49.78;99761.75;7392935;19;20003;-60
2022/11/17 03:30:16;;;;;;;6.25;3.42;;;;;;;7.90;49.28;99760.56;7391819;19;19998;-60
2022/11/17 03:32:48;;;;;;;6.72;3.55;;;;;;;7.73;49.78;99761.63;7390462;19;20062;-60
2022/11/17 03:35:18;;;;;;;8.07;3.88;;;;;;;7.92;49.57;99748.19;7392842;19;19994;-61
2022/11/17 03:37:49;;;;;;;7.20;3.70;;;;;;;8.06;49.30;99747.75;7390421;19;20325;-60
2022/11/17 03:43:12;;;;;;;7.75;3.72;;;;;;;7.65;50.03;99736.22;7389602;19;20014;-59
2022/11/17 03:45:41;;;;;;;8.18;3.80;;;;;;;7.62;49.89;99742.34;7392876;19;20050;-59
2022/11/17 03:48:15;;;;;;;8.05;4.10;;;;;;;7.57;50.21;99735.22;7390558;19;20059;-58
2022/11/17 03:50:57;;;;;;;7.85;4.05;;;;;;;7.71;49.71;99743.00;7392021;19;20002;-59
2022/11/17 03:53:23;;;;;;;8.75;3.90;;;;;;;7.93;49.29;99749.78;7391248;19;20021;-59
2022/11/17 03:56:00;;;;;;;8.05;3.75;;;;;;;7.93;48.98;99741.63;7391417;19;20530;-59
2022/11/17 03:58:31;;;;;;;8.90;3.72;;;;;;;7.81;49.42;99747.09;7388323;19;20017;-60
2022/11/17 04:01:00;;;;;;;7.93;3.92;;;;;;;7.93;49.19;99751.69;7390821;19;20296;-60
2022/11/17 04:03:32;;;;;;;9.02;4.00;;;;;;;7.67;49.71;99750.25;7391698;19;20005;-59
2022/11/17 04:05:59;;;;;;;8.68;4.10;;;;;;;7.68;49.70;99751.03;7391249;19;20009;-60
2022/11/17 04:08:28;;;;;;;9.13;4.25;;;;;;;7.82;49.47;99754.13;7390304;19;20079;-60
2022/11/17 04:16:37;;;;;;;8.90;4.45;;;;;;;7.95;48.86;99738.56;7390709;19;20002;-60
2022/11/17 04:19:03;;;;;;;10.75;5.18;;;;;;;7.86;49.00;99725.13;7388601;19;20005;-60
2022/11/17 04:21:29;;;;;;;9.52;4.30;;;;;;;7.60;49.53;99728.31;7387412;19;20003;-60
2022/11/17 04:23:56;;;;;;;9.20;4.60;;;;;;;7.68;49.39;99716.53;7390327;19;20092;-59
2022/11/17 04:29:07;;;;;;;9.35;4.82;;;;;;;7.65;49.47;99713.72;7390735;19;20350;-60
2022/11/17 04:31:32;;;;;;;11.15;4.85;;;;;;;7.58;49.66;99706.16;7387653;19;20062;-60
2022/11/17 04:34:00;;;;;;;9.65;4.40;;;;;;;7.31;49.89;99699.59;7390814;19;19999;-59
2022/11/17 04:36:34;;;;;;;9.43;4.47;;;;;;;7.37;50.06;99698.22;7389188;19;19991;-59
2022/11/17 04:39:01;;;;;;;9.00;4.80;;;;;;;7.31;49.83;99703.13;7388809;19;19995;-59
2022/11/17 04:44:14;;;;;;;10.68;5.28;;;;;;;7.37;49.65;99696.28;7389773;19;19999;-60
2022/11/17 04:46:43;;;;;;;9.43;4.65;;;;;;;7.72;48.76;99690.22;7389636;19;20067;-62
2022/11/17 04:49:09;;;;;;;8.85;4.35;;;;;;;7.70;48.94;99684.38;7392656;19;20014;-60
2022/11/17 04:51:35;;;;;;;10.50;4.15;;;;;;;7.67;48.77;99687.78;7395875;19;20002;-60
2022/11/17 04:54:02;;;;;;;8.85;4.35;;;;;;;7.89;48.40;99682.88;7396984;19;19994;-61
2022/11/17 04:56:29;;;;;;;8.27;4.22;;;;;;;7.85;48.59;99692.88;7396566;19;20013;-60
2022/11/17 04:58:55;;;;;;;9.65;5.07;;;;;;;7.83;48.40;99690.50;7394883;19;19999;-60
2022/11/17 05:01:22;;;;;;;10.18;5.13;;;;;;;7.67;49.05;99687.00;7396487;19;20007;-60
2022/11/17 05:03:55;;;;;;;11.00;5.53;;;;;;;7.56;49.10;99692.13;7395548;19;20014;-60
2022/11/17 05:06:23;;;;;;;10.55;5.50;;;;;;;7.56;49.18;99692.13;7394845;19;20042;-64
2022/11/17 05:08:54;;;;;;;11.52;5.55;;;;;;;7.66;49.23;99683.47;7397589;19;20025;-60
2022/11/17 05:14:05;;;;;;;9.70;5.30;;;;;;;7.65;48.99;99687.34;7397221;19;20010;-61
2022/11/17 05:19:24;;;;;;;12.13;6.03;;;;;;;7.65;48.91;99679.19;7397055;19;20003;-61
2022/11/17 05:21:50;;;;;;;9.95;5.47;;;;;;;7.71;48.93;99677.81;7395176;19;20007;-60
2022/11/17 05:24:16;;;;;;;11.90;6.25;;;;;;;7.56;49.35;99687.50;7397177;19;20003;-59
2022/11/17 05:26:43;;;;;;;10.75;5.80;;;;;;;7.66;49.04;99672.59;7395674;19;20021;-58
2022/11/17 05:29:18;;;;;;;11.35;6.13;;;;;;;7.40;49.42;99670.38;7396662;19;20003;-59
2022/11/17 05:31:45;;;;;;;11.82;6.20;;;;;;;7.41;49.73;99661.91;7395872;19;20011;-60
2022/11/17 05:34:12;;;;;;;11.73;6.15;;;;;;;7.50;49.26;99663.66;7396643;19;20003;-60
2022/11/17 05:36:39;;;;;;;15.13;6.22;;;;;;;7.17;49.85;99654.66;7393762;19;19995;-60
2022/11/17 05:39:06;;;;;;;16.27;6.38;;;;;;;7.10;50.15;99664.53;7393198;19;20002;-60
2022/11/17 05:41:32;;;;;;;13.48;6.95;;;;;;;7.28;49.82;99665.00;7393466;19;20015;-60
2022/11/17 05:43:58;;;;;;;11.57;6.32;;;;;;;7.42;49.51;99671.59;7393905;19;20011;-60
2022/11/17 05:46:25;;;;;;;13.88;6.90;;;;;;;7.41;49.63;99667.31;7396058;19;20006;-60
2022/11/17 05:48:52;;;;;;;13.63;6.63;;;;;;;7.23;50.03;99666.06;7394878;19;20022;-60
2022/11/17 05:51:19;;;;;;;12.57;6.88;;;;;;;7.27;50.02;99658.78;7395135;19;20010;-60
2022/11/17 05:53:46;;;;;;;13.13;7.03;;;;;;;7.21;50.12;99662.88;7396105;19;20002;-60
2022/11/17 05:56:27;;;;;;;13.75;7.03;;;;;;;6.97;50.95;99656.41;7392632;19;20412;-60
2022/11/17 05:59:00;;;;;;;14.57;7.63;;;;;;;6.97;50.58;99651.00;7393085;19;20009;-59
2022/11/17 06:01:28;;;;;;;13.88;7.22;;;;;;;7.09;50.48;99663.72;7391523;19;20007;-59
2022/11/17 06:03:58;;;;;;;13.93;7.50;;;;;;;7.32;50.11;99655.03;7395925;19;20002;-59
2022/11/17 06:06:24;;;;;;;15.25;7.47;;;;;;;7.38;49.84;99649.00;7395511;19;20124;-59
2022/11/17 06:08:49;;;;;;;13.95;7.53;;;;;;;7.40;49.65;99646.72;7394620;19;20005;-59
2022/11/17 06:11:17;;;;;;;15.93;8.23;;;;;;;7.34;49.77;99642.69;7393906;19;20327;-59
2022/11/17 06:13:43;;;;;;;13.65;7.43;;;;;;;7.33;50.01;99632.97;7395430;19;20054;-60
2022/11/17 06:16:13;;;;;;;14.90;7.93;;;;;;;7.26;50.14;99640.91;7392087;19;20012;-60
2022/11/17 06:19:05;;;;;;;14.18;7.95;;;;;;;7.25;50.17;99652.94;7393298;19;20042;-60
2022/11/17 06:21:33;;;;;;;15.40;7.95;;;;;;;7.13;50.68;99648.34;7392549;19;20019;-60
2022/11/17 06:24:00;;;;;;;14.63;8.00;;;;;;;7.22;50.34;99650.91;7394429;19;20006;-60
2022/11/17 06:26:26;;;;;;;14.40;8.27;;;;;;;7.28;50.13;99638.66;7392278;19;19999;-60
2022/11/17 06:28:53;;;;;;;15.88;8.70;;;;;;;7.26;50.22;99651.00;7395223;19;19998;-60
2022/11/17 06:31:19;;;;;;;15.20;8.40;;;;;;;7.23;50.33;99636.19;7392648;19;20029;-59
2022/11/17 06:33:46;;;;;;;15.82;8.82;;;;;;;7.22;50.20;99643.53;7392798;19;20040;-60
2022/11/17 06:36:11;;;;;;;16.67;8.63;;;;;;;7.23;50.22;99641.63;7393665;19;20009;-60
2022/11/17 06:38:37;;;;;;;16.77;8.98;;;;;;;7.47;49.56;99643.41;7392275;19;20006;-60
2022/11/17 06:41:04;;;;;;;14.50;8.43;;;;;;;7.24;49.97;99640.47;7393247;19;20347;-59
2022/11/17 06:43:30;;;;;;;18.55;8.63;;;;;;;6.98;50.53;99649.88;7393746;19;20542;-61
2022/11/17 06:46:01;;;;;;;16.95;9.35;;;;;;;6.87;50.56;99635.97;7393701;19;19994;-60
2022/11/17 06:48:27;;;;;;;16.67;8.65;;;;;;;7.03;50.18;99636.06;7393972;19;20074;-60
2022/11/17 06:50:53;;;;;;;17.67;9.30;;;;;;;7.21;50.02;99644.69;7392310;19;20014;-59
2022/11/17 06:53:21;;;;;;;16.23;9.00;;;;;;;7.27;49.74;99626.22;7394281;19;19998;-60
2022/11/17 06:56:07;;;;;;;16.85;8.55;;;;;;;7.27;49.69;99625.44;7394039;19;20018;-60
2022/11/17 06:58:34;;;;;;;17.13;8.45;;;;;;;7.28;49.75;99616.16;7391777;19;20003;-60
2022/11/17 07:01:07;;;;;;;15.15;8.65;;;;;;;7.30;49.73;99624.75;7392713;19;20033;-61
2022/11/17 07:03:34;;;;;;;15.85;8.98;;;;;;;7.35;49.53;99628.00;7394169;19;19999;-61
2022/11/17 07:06:01;;;;;;;16.58;8.65;;;;;;;7.22;49.82;99629.97;7392260;19;20002;-61
2022/11/17 07:08:28;;;;;;;17.33;9.20;;;;;;;6.98;50.61;99617.31;7390705;19;20030;-61
2022/11/17 07:10:53;;;;;;;17.00;9.43;;;;;;;7.02;50.42;99615.47;7392294;19;19999;-61
2022/11/17 07:13:21;;;;;;;18.10;9.65;;;;;;;7.23;49.83;99609.06;7390124;19;20018;-61
2022/11/17 07:15:48;;;;;;;18.08;9.23;;;;;;;6.98;50.70;99603.75;7392353;19;20367;-61
2022/11/17 07:18:19;;;;;;;16.25;9.13;;;;;;;7.05;50.32;99622.16;7391030;19;19999;-60
2022/11/17 07:20:46;;;;;;;18.77;9.73;;;;;;;7.27;49.96;99625.44;7392218;19;20006;-61
2022/11/17 07:23:12;;;;;;;17.45;9.88;;;;;;;7.19;50.22;99638.03;7393050;19;20006;-62
2022/11/17 07:25:38;;;;;;;18.52;10.32;;;;;;;6.98;51.03;99628.16;7392012;19;20089;-62
2022/11/17 07:28:04;;;;;;;16.55;9.45;;;;;;;6.98;51.03;99624.66;7391573;19;20002;-62
2022/11/17 07:30:30;;;;;;;18.88;10.90;;;;;;;7.02;51.04;99625.53;7393032;19;20011;-61
2022/11/17 07:32:59;;;;;;;17.83;10.27;;;;;;;7.00;51.31;99623.19;7392788;19;19999;-60
2022/11/17 07:35:26;;;;;;;17.65;10.45;;;;;;;6.82;51.58;99624.56;7390673;19;20613;-60
2022/11/17 07:37:56;;;;;;;18.42;9.95;;;;;;;6.59;52.42;99627.00;7390879;19;20006;-60
2022/11/17 07:40:22;;;;;;;18.40;10.95;;;;;;;6.66;52.36;99628.00;7390435;19;20014;-59
2022/11/17 07:42:48;;;;;;;18.15;10.02;;;;;;;6.64;52.41;99614.03;7389494;19;20065;-59
2022/11/17 07:45:14;;;;;;;18.67;9.93;;;;;;;6.70;52.32;99609.13;7392414;19;20006;-60
2022/11/17 07:47:40;;;;;;;18.65;10.43;;;;;;;6.60;52.71;99598.78;7389266;19;20069;-59
2022/11/17 07:50:06;;;;;;;22.00;10.60;;;;;;;6.32;53.17;99594.84;7391959;19;20033;-59
2022/11/17 07:52:31;;;;;;;16.55;10.27;;;;;;;6.54;52.69;99608.28;7390881;19;20081;-59
2022/11/17 07:54:57;;;;;;;17.90;10.25;;;;;;;6.74;52.47;99618.16;7390996;19;20327;-59
2022/11/17 07:57:24;;;;;;;18.35;10.45;;;;;;;6.73;52.37;99597.59;7389089;19;20001;-59
2022/11/17 07:59:50;;;;;;;17.45;10.30;;;;;;;6.72;52.50;99595.22;7391831;19;20534;-59
2022/11/17 08:02:15;;;;;;;18.23;10.73;;;;;;;6.70;52.53;99608.34;7390538;19;19995;-59
2022/11/17 08:04:41;;;;;;;17.77;9.80;;;;;;;6.75;52.43;99591.84;7391540;19;20062;-59
2022/11/17 08:07:07;;;;;;;16.58;9.75;;;;;;;6.78;52.09;99597.34;7390718;19;20035;-60
2022/11/17 08:09:32;;;;;;;18.08;9.82;;;;;;;6.58;52.41;99595.63;7391785;19;19998;-62
2022/11/17 08:11:58;;;;;;;17.77;10.55;;;;;;;6.60;52.46;99588.72;7390452;19;20002;-62
2022/11/17 08:14:24;;;;;;;17.73;10.65;;;;;;;6.41;52.88;99586.63;7390859;19;20023;-61
2022/11/17 08:16:49;;;;;;;18.33;10.13;;;;;;;6.49;52.81;99572.16;7390502;19;20004;-61
2022/11/17 08:19:15;;;;;;;17.23;10.38;;;;;;;6.37;53.05;99574.88;7388442;19;20003;-61
2022/11/17 08:21:41;;;;;;;20.30;10.98;;;;;;;6.61;52.81;99565.91;7387900;19;19999;-61
2022/11/17 08:24:07;;;;;;;21.73;12.15;;;;;;;6.70;52.43;99567.69;7393293;19;20002;-61
2022/11/17 08:26:32;;;;;;;20.70;11.20;;;;;;;6.73;52.25;99556.91;7397915;19;20006;-61
2022/11/17 08:29:00;;;;;;;22.67;11.27;;;;;;;6.63;52.53;99562.84;7398409;19;20400;-61
2022/11/17 08:31:26;;;;;;;22.05;11.73;;;;;;;6.57;53.00;99551.44;7397199;19;20098;-61
2022/11/17 08:33:51;;;;;;;23.90;12.57;;;;;;;6.47;53.08;99554.63;7396098;19;20026;-61
2022/11/17 08:36:17;;;;;;;24.65;12.77;;;;;;;6.67;52.33;99556.38;7397393;19;20005;-61
2022/11/17 08:38:43;;;;;;;22.67;12.60;;;;;;;6.71;52.37;99550.25;7394561;19;19994;-61
2022/11/17 08:41:09;;;;;;;17.80;10.40;;;;;;;6.67;52.23;99555.59;7395320;19;19999;-61
2022/11/17 08:43:35;;;;;;;19.98;11.20;;;;;;;6.68;52.31;99554.47;7394524;19;20007;-61
2022/11/17 08:46:03;;;;;;;20.00;11.07;;;;;;;6.67;52.45;99550.94;7397676;19;20003;-61
2022/11/17 08:48:30;;;;;;;19.83;11.13;;;;;;;6.67;52.36;99540.09;7395346;19;20086;-61
2022/11/17 08:50:56;;;;;;;18.52;10.25;;;;;;;6.51;52.81;99541.97;7397201;19;20010;-61
2022/11/17 08:53:22;;;;;;;17.92;10.07;;;;;;;6.43;52.57;99551.81;7398223;19;20036;-60
2022/11/17 08:55:49;;;;;;;19.95;9.82;;;;;;;6.47;52.62;99557.34;7398586;19;20450;-59
2022/11/17 08:58:15;;;;;;;17.60;9.77;;;;;;;6.59;52.17;99560.00;7393402;19;20002;-60
2022/11/17 09:00:41;;;;;;;17.35;9.77;;;;;;;6.42;52.67;99546.75;7397087;19;20355;-59
2022/11/17 09:03:08;;;;;;;14.68;8.15;;;;;;;6.32;52.71;99550.72;7397236;19;20025;-60
2022/11/17 09:05:47;;;;;;;15.20;8.90;;;;;;;6.41;52.84;99553.28;7397791;19;19994;-59
2022/11/17 09:08:13;;;;;;;17.75;10.07;;;;;;;6.58;52.30;99553.03;7394574;19;20380;-59
2022/11/17 09:10:39;;;;;;;14.63;8.52;;;;;;;6.38;52.70;99559.41;7396927;19;20034;-59
2022/11/17 09:13:05;;;;;;;15.73;8.32;;;;;;;6.38;52.64;99549.34;7397540;19;20017;-59
2022/11/17 09:15:32;;;;;;;14.05;8.55;;;;;;;6.27;52.91;99554.44;7397416;19;20007;-59
2022/11/17 09:17:58;;;;;;;15.35;8.20;;;;;;;6.32;53.08;99558.84;7394856;19;20119;-58
2022/11/17 09:20:24;;;;;;;14.10;8.05;;;;;;;6.29;52.91;99552.22;7396994;19;20030;-59
2022/11/17 09:22:49;;;;;;;14.10;7.85;;;;;;;6.47;52.22;99562.75;7391984;19;20086;-59
2022/11/17 09:25:15;;;;;;;12.73;7.40;;;;;;;6.58;52.12;99553.03;7396600;19;20018;-60
2022/11/17 09:27:41;;;;;;;11.88;6.78;;;;;;;6.45;52.50;99559.63;7393746;19;20015;-59
2022/11/17 09:30:07;;;;;;;13.05;6.82;;;;;;;6.53;52.30;99555.16;7396631;19;20009;-59
2022/11/17 09:32:34;;;;;;;14.23;7.78;;;;;;;6.61;52.19;99549.63;7392602;19;20011;-59
2022/11/17 09:35:00;;;;;;;13.52;7.35;;;;;;;6.66;51.87;99560.22;7397778;19;20007;-59
2022/11/17 09:37:27;;;;;;;13.65;7.75;;;;;;;6.74;51.75;99555.78;7394798;19;20521;-59
2022/11/17 09:39:52;;;;;;;11.90;7.40;;;;;;;6.80;51.61;99553.63;7394112;19;20099;-59
2022/11/17 09:42:21;;;;;;;12.32;6.68;;;;;;;6.72;51.97;99568.13;7390911;19;20011;-61
2022/11/17 09:44:51;;;;;;;12.73;7.15;;;;;;;6.52;52.37;99565.22;7395632;19;20002;-59
2022/11/17 09:47:40;;;;;;;14.18;7.53;;;;;;;6.58;52.04;99563.09;7396010;19;19999;-58
2022/11/17 09:50:21;;;;;;;11.93;7.20;;;;;;;6.75;51.89;99559.28;7396027;19;20002;-58
2022/11/17 09:53:15;;;;;;;12.43;6.85;;;;;;;6.57;52.16;99562.28;7394303;19;20017;-57
2022/11/17 09:55:44;;;;;;;12.87;6.80;;;;;;;6.65;52.19;99560.56;7396273;19;20002;-59
2022/11/17 09:58:42;;;;;;;13.02;7.20;;;;;;;6.71;52.11;99556.50;7393203;19;20247;-58
2022/11/17 10:01:14;;;;;;;13.30;6.57;;;;;;;6.62;52.15;99563.97;7394973;19;19999;-58
2022/11/17 10:03:43;;;;;;;11.98;7.05;;;;;;;6.72;51.98;99562.69;7395086;19;20046;-58
2022/11/17 10:06:17;;;;;;;12.10;6.63;;;;;;;6.63;52.20;99555.50;7394867;19;20025;-59
2022/11/17 10:09:00;;;;;;;13.18;7.10;;;;;;;6.50;52.29;99562.09;7391760;19;20029;-60
2022/11/17 10:11:35;;;;;;;13.00;6.60;;;;;;;6.51;52.19;99560.97;7394700;19;20012;-60
2022/11/17 10:14:06;;;;;;;12.40;6.65;;;;;;;6.66;52.23;99559.41;7394740;19;19991;-59
2022/11/17 10:16:32;;;;;;;13.25;6.53;;;;;;;6.72;52.03;99562.69;7393632;19;20003;-59
2022/11/17 10:19:08;;;;;;;14.32;7.03;;;;;;;6.83;51.71;99558.34;7392737;19;20002;-59
2022/11/17 10:21:36;;;;;;;13.05;6.95;;;;;;;6.83;51.71;99558.34;7393758;19;20026;-58
2022/11/17 10:24:02;;;;;;;12.25;6.72;;;;;;;6.53;52.37;99549.75;7394262;19;20002;-59
2022/11/17 10:26:42;;;;;;;13.40;6.68;;;;;;;6.63;51.97;99549.28;7393982;19;20002;-59
2022/11/17 10:29:12;;;;;;;11.20;6.10;;;;;;;6.54;52.17;99549.41;7394143;19;20002;-59
2022/11/17 10:31:43;;;;;;;10.57;6.07;;;;;;;6.65;52.02;99545.06;7393195;19;19999;-60
2022/11/17 10:34:25;;;;;;;12.25;6.45;;;;;;;6.64;52.02;99540.81;7395579;19;20002;-59
2022/11/17 10:36:51;;;;;;;10.82;5.70;;;;;;;6.29;52.79;99552.22;7393126;19;20007;-59
2022/11/17 10:39:36;;;;;;;11.45;6.13;;;;;;;6.53;52.44;99542.44;7390595;19;20009;-59
2022/11/17 10:42:19;;;;;;;11.52;6.15;;;;;;;6.61;51.80;99555.03;7393165;19;20011;-58
2022/11/17 10:44:51;;;;;;;11.93;6.20;;;;;;;6.61;52.07;99552.34;7393193;19;20010;-59
2022/11/17 10:48:06;;;;;;;12.27;6.07;;;;;;;6.66;52.01;99549.38;7390954;19;20458;-59
2022/11/17 10:50:32;;;;;;;12.20;6.13;;;;;;;6.55;52.12;99553.72;7389427;19;20459;-59
2022/11/17 10:53:27;;;;;;;12.13;6.15;;;;;;;6.70;51.85;99559.53;7389651;19;20009;-58
2022/11/17 10:56:04;;;;;;;12.63;6.43;;;;;;;6.50;52.01;99546.59;7391751;19;20003;-59
2022/11/17 10:58:32;;;;;;;10.38;5.38;;;;;;;6.64;51.89;99556.25;7391733;19;20010;-59
2022/11/17 11:01:01;;;;;;;10.88;5.75;;;;;;;6.65;51.76;99536.16;7392466;19;20466;-58
2022/11/17 11:03:32;;;;;;;12.13;5.90;;;;;;;6.53;52.07;99550.56;7392540;19;20019;-59
2022/11/17 11:06:02;;;;;;;13.73;7.45;;;;;;;6.61;51.95;99549.63;7391862;19;20006;-59
2022/11/17 11:08:40;;;;;;;10.70;5.70;;;;;;;6.78;51.45;99545.81;7392150;19;20324;-59
2022/11/17 11:11:16;;;;;;;11.10;5.65;;;;;;;6.76;51.45;99548.09;7392881;19;20104;-60
2022/11/17 11:13:52;;;;;;;10.27;5.50;;;;;;;6.81;51.27;99544.31;7393570;19;20010;-58
2022/11/17 11:16:18;;;;;;;14.65;6.18;;;;;;;6.76;51.55;99539.16;7391168;19;20011;-60
2022/11/17 11:18:46;;;;;;;10.07;5.20;;;;;;;6.77;51.44;99546.16;7391132;19;20003;-59
2022/11/17 11:21:18;;;;;;;9.40;5.03;;;;;;;6.79;51.59;99543.91;7392827;19;20408;-59
2022/11/17 11:24:12;;;;;;;10.35;5.00;;;;;;;6.95;51.05;99542.03;7391897;19;20003;-59
2022/11/17 11:26:44;;;;;;;10.43;4.78;;;;;;;6.75;51.69;99532.94;7391500;19;20032;-60
2022/11/17 11:29:49;;;;;;;9.10;4.88;;;;;;;6.91;51.57;99543.88;7392332;19;20003;-60
2022/11/17 11:32:44;;;;;;;9.98;4.55;;;;;;;6.70;51.92;99543.28;7391628;19;20013;-59
2022/11/17 11:35:38;;;;;;;9.80;4.68;;;;;;;6.83;51.76;99534.72;7391847;19;19998;-59
2022/11/17 11:38:18;;;;;;;9.75;4.57;;;;;;;6.81;52.03;99544.31;7391428;19;19999;-60
2022/11/17 11:41:06;;;;;;;8.68;4.05;;;;;;;6.88;51.63;99547.25;7389482;19;20019;-59
2022/11/17 11:44:06;;;;;;;10.05;4.43;;;;;;;6.97;51.80;99557.97;7391022;19;20066;-59
2022/11/17 11:46:52;;;;;;;8.10;4.43;;;;;;;6.96;52.02;99549.06;7391459;19;20075;-59
2022/11/17 11:49:39;;;;;;;8.98;4.38;;;;;;;6.86;52.38;99563.88;7389754;19;20003;-59
2022/11/17 11:52:13;;;;;;;8.52;4.35;;;;;;;7.14;51.41;99554.16;7391133;19;20015;-60
2022/11/17 11:54:47;;;;;;;9.02;4.00;;;;;;;7.01;51.40;99548.00;7391012;19;19998;-60
2022/11/17 11:57:17;;;;;;;7.60;4.00;;;;;;;6.78;52.34;99545.03;7390929;19;19995;-60
2022/11/17 11:59:54;;;;;;;7.90;4.10;;;;;;;6.70;52.96;99551.41;7389362;19;20007;-60
2022/11/17 12:02:33;;;;;;;7.78;3.75;;;;;;;7.01;52.41;99565.06;7389963;19;20002;-60
2022/11/17 12:05:30;;;;;;;6.75;3.42;;;;;;;6.94;52.58;99553.22;7392078;19;19995;-60
2022/11/17 12:08:19;;;;;;;7.82;3.70;;;;;;;6.96;52.77;99565.34;7387713;19;19991;-60
2022/11/17 12:10:59;;;;;;;9.02;3.67;;;;;;;7.06;52.19;99555.88;7389951;19;20018;-60
2022/11/17 12:13:26;;;;;;;7.47;3.65;;;;;;;6.92;52.72;99561.72;7391936;19;20367;-59
2022/11/17 12:16:18;;;;;;;8.30;3.70;;;;;;;7.17;52.24;99561.59;7391278;19;20062;-58
2022/11/17 12:18:43;;;;;;;6.85;2.95;;;;;;;7.16;52.15;99551.88;7390439;19;19991;-59
2022/11/17 12:21:21;;;;;;;8.18;3.50;;;;;;;7.07;52.45;99565.59;7390938;19;20014;-59
2022/11/17 12:24:06;;;;;;;7.50;3.30;;;;;;;6.72;53.06;99565.41;7390927;19;20022;-57
2022/11/17 12:26:33;;;;;;;7.57;3.42;;;;;;;6.88;52.56;99560.81;7390562;19;19998;-58
2022/11/17 12:29:18;;;;;;;5.45;2.80;;;;;;;6.91;52.55;99554.72;7390609;19;20010;-58
2022/11/17 12:31:47;;;;;;;6.78;3.30;;;;;;;7.00;52.46;99557.28;7390395;19;20015;-59